Bookmark and Share
Track history (hours):
 

Ital Oriente

Last reported at 2014-Apr-16 07:11 UTC. Time now 2014-Apr-19 05:08 UTC.
Position N 37°08' E 023°49'.

Length 222 m; draft 10.4 m.

Type: Cargo ship. MMSI: 636091278.

NotesDate/timePositionNaut miles runAvg speedWind from/ knotsBaromVisibWave heightAir tempDewpointWater temp
2014-Apr-16 07:11N 37°08' E 023°49'1517.3
2014-Apr-16 06:18N 37°22' E 023°59'1215.9
2014-Apr-16 05:34N 37°32' E 024°07'1615.0
2014-Apr-16 04:31N 37°44' E 024°19'1515.4
2014-Apr-16 03:33N 37°54' E 024°33'4413.8
2014-Apr-16 00:24N 38°36' E 024°16'61 1.4
2014-Apr-14 05:33N 39°37' E 024°07'87 2.3
2014-Apr-12 15:06N 39°59' E 025°57'  
2014-Apr-09 05:32N 39°53' E 025°52'1211.6
2014-Apr-09 04:30N 39°43' E 025°45'1111.7
2014-Apr-09 03:33N 39°33' E 025°39'4812.0
2014-Apr-08 23:33N 38°49' E 025°12'6212.3
2014-Apr-08 18:33N 37°55' E 024°35'1211.5
2014-Apr-08 17:33N 37°48' E 024°23'2311.3
2014-Apr-08 15:33N 37°35' E 024°00'1211.9
2014-Apr-08 14:33N 37°38' E 023°45'1212.2
2014-Apr-08 13:33N 37°48' E 023°38'9 9.0
2014-Apr-08 12:33N 37°57' E 023°35'0 0.2
2014-Apr-08 11:16N 37°57' E 023°35'0 0.0
2014-Apr-08 10:22N 37°57' E 023°35'0 0.0
2014-Apr-08 09:28N 37°57' E 023°35'0 0.0
2014-Apr-08 08:22N 37°57' E 023°35'0 0.0
2014-Apr-08 07:28N 37°57' E 023°35'0 0.0
2014-Apr-08 06:31N 37°57' E 023°35'0 0.0
2014-Apr-08 05:31N 37°57' E 023°35'0 0.0
2014-Apr-08 04:28N 37°57' E 023°35'0 0.0
2014-Apr-08 03:28N 37°57' E 023°35'0 0.0
2014-Apr-08 02:31N 37°57' E 023°35'0 0.0
2014-Apr-08 01:28N 37°57' E 023°35'0 0.0
2014-Apr-08 00:31N 37°57' E 023°35'0 0.0
2014-Apr-07 23:28N 37°57' E 023°35'0 0.0
2014-Apr-07 22:31N 37°57' E 023°35'0 0.0
2014-Apr-07 21:31N 37°57' E 023°35'0 0.0
2014-Apr-07 20:31N 37°57' E 023°35'0 0.0
2014-Apr-07 19:28N 37°57' E 023°35'0 0.0
2014-Apr-07 17:28N 37°57' E 023°35'0 0.0
2014-Apr-07 16:31N 37°57' E 023°35'0 0.0
2014-Apr-07 15:28N 37°57' E 023°35'0 0.0
2014-Apr-07 14:31N 37°57' E 023°35'0 0.0
2014-Apr-07 13:25N 37°57' E 023°35'0 0.0
2014-Apr-07 12:31N 37°57' E 023°35'0 0.0
2014-Apr-07 11:31N 37°57' E 023°35'0 0.0
2014-Apr-07 10:31N 37°57' E 023°35'0 0.0
2014-Apr-07 09:34N 37°57' E 023°35'6 5.5
2014-Apr-07 08:33N 37°53' E 023°38'1110.6
2014-Apr-07 07:33N 37°43' E 023°44'104 9.2
2014-Apr-06 20:14N 36°22' E 022°23'  

Dump ship's entire track history

sailing weather and tide predictions

Ital Oriente — A8LN2 — position and weather